sensor_id;sensor_type;location;lat;lon;timestamp;pressure;altitude;pressure_sealevel;temperature;humidity
68594;BME280;55563;52.416;13.548;2023-04-15T00:01:18;100175.97;;;7.57;100.00
68594;BME280;55563;52.416;13.548;2023-04-15T00:03:19;100176.50;;;7.59;100.00
68594;BME280;55563;52.416;13.548;2023-04-15T00:05:20;100176.75;;;7.58;100.00
68594;BME280;55563;52.416;13.548;2023-04-15T00:07:21;100169.16;;;7.56;100.00
68594;BME280;55563;52.416;13.548;2023-04-15T00:09:21;100167.81;;;7.54;100.00
68594;BME280;55563;52.416;13.548;2023-04-15T00:11:22;100161.03;;;7.53;100.00
68594;BME280;55563;52.416;13.548;2023-04-15T00:13:23;100170.69;;;7.52;100.00
68594;BME280;55563;52.416;13.548;2023-04-15T00:15:24;100165.47;;;7.52;100.00
68594;BME280;55563;52.416;13.548;2023-04-15T00:17:25;100162.06;;;7.52;100.00
68594;BME280;55563;52.416;13.548;2023-04-15T00:19:25;100169.91;;;7.52;100.00
68594;BME280;55563;52.416;13.548;2023-04-15T00:21:26;100160.25;;;7.52;100.00
68594;BME280;55563;52.416;13.548;2023-04-15T00:23:28;100164.91;;;7.50;100.00
68594;BME280;55563;52.416;13.548;2023-04-15T00:25:28;100163.09;;;7.51;100.00
68594;BME280;55563;52.416;13.548;2023-04-15T00:27:29;100167.53;;;7.50;100.00
68594;BME280;55563;52.416;13.548;2023-04-15T00:29:30;100162.06;;;7.52;100.00
68594;BME280;55563;52.416;13.548;2023-04-15T00:31:31;100166.25;;;7.53;100.00
68594;BME280;55563;52.416;13.548;2023-04-15T00:33:32;100156.84;;;7.52;100.00
68594;BME280;55563;52.416;13.548;2023-04-15T00:35:32;100164.69;;;7.52;100.00
68594;BME280;55563;52.416;13.548;2023-04-15T00:37:33;100157.63;;;7.52;100.00
68594;BME280;55563;52.416;13.548;2023-04-15T00:39:34;100159.19;;;7.53;100.00
68594;BME280;55563;52.416;13.548;2023-04-15T00:41:35;100162.53;;;7.49;100.00
68594;BME280;55563;52.416;13.548;2023-04-15T00:43:38;100168.56;;;7.49;100.00
68594;BME280;55563;52.416;13.548;2023-04-15T00:45:39;100166.50;;;7.51;100.00
68594;BME280;55563;52.416;13.548;2023-04-15T00:47:42;100159.44;;;7.52;100.00
68594;BME280;55563;52.416;13.548;2023-04-15T00:49:42;100157.63;;;7.52;100.00
68594;BME280;55563;52.416;13.548;2023-04-15T00:51:43;100157.88;;;7.51;100.00
68594;BME280;55563;52.416;13.548;2023-04-15T00:53:44;100161.78;;;7.53;100.00
68594;BME280;55563;52.416;13.548;2023-04-15T00:55:44;100161.28;;;7.51;100.00
68594;BME280;55563;52.416;13.548;2023-04-15T00:57:45;100150.81;;;7.51;100.00
68594;BME280;55563;52.416;13.548;2023-04-15T00:59:46;100152.09;;;7.49;100.00
68594;BME280;55563;52.416;13.548;2023-04-15T01:01:47;100150.25;;;7.49;100.00
68594;BME280;55563;52.416;13.548;2023-04-15T01:03:49;100151.84;;;7.50;100.00
68594;BME280;55563;52.416;13.548;2023-04-15T01:05:50;100153.44;;;7.51;100.00
68594;BME280;55563;52.416;13.548;2023-04-15T01:07:57;100149.22;;;7.50;100.00
68594;BME280;55563;52.416;13.548;2023-04-15T01:09:58;100157.31;;;7.49;100.00
68594;BME280;55563;52.416;13.548;2023-04-15T01:11:59;100150.53;;;7.48;100.00
68594;BME280;55563;52.416;13.548;2023-04-15T01:14:00;100146.09;;;7.48;100.00
68594;BME280;55563;52.416;13.548;2023-04-15T01:16:01;100151.31;;;7.48;100.00
68594;BME280;55563;52.416;13.548;2023-04-15T01:18:02;100141.63;;;7.49;100.00
68594;BME280;55563;52.416;13.548;2023-04-15T01:20:04;100139.53;;;7.45;100.00
68594;BME280;55563;52.416;13.548;2023-04-15T01:22:06;100141.91;;;7.47;100.00
68594;BME280;55563;52.416;13.548;2023-04-15T01:24:08;100145.31;;;7.48;100.00
68594;BME280;55563;52.416;13.548;2023-04-15T01:26:09;100135.88;;;7.47;100.00
68594;BME280;55563;52.416;13.548;2023-04-15T01:28:10;100137.47;;;7.48;100.00
68594;BME280;55563;52.416;13.548;2023-04-15T01:30:11;100141.63;;;7.49;100.00
68594;BME280;55563;52.416;13.548;2023-04-15T01:32:12;100144.25;;;7.49;100.00
68594;BME280;55563;52.416;13.548;2023-04-15T01:34:32;100145.03;;;7.49;100.00
68594;BME280;55563;52.416;13.548;2023-04-15T01:36:53;100143.47;;;7.48;100.00
68594;BME280;55563;52.416;13.548;2023-04-15T01:39:08;100141.09;;;7.47;100.00
68594;BME280;55563;52.416;13.548;2023-04-15T01:41:28;100142.41;;;7.49;100.00
68594;BME280;55563;52.416;13.548;2023-04-15T01:43:30;100145.53;;;7.46;100.00
68594;BME280;55563;52.416;13.548;2023-04-15T01:45:33;100144.25;;;7.49;100.00
68594;BME280;55563;52.416;13.548;2023-04-15T01:47:34;100139.00;;;7.49;100.00
68594;BME280;55563;52.416;13.548;2023-04-15T01:49:37;100144.50;;;7.47;100.00
68594;BME280;55563;52.416;13.548;2023-04-15T01:51:38;100142.94;;;7.46;100.00
68594;BME280;55563;52.416;13.548;2023-04-15T01:53:41;100134.84;;;7.48;100.00
68594;BME280;55563;52.416;13.548;2023-04-15T01:55:43;100142.94;;;7.46;100.00
68594;BME280;55563;52.416;13.548;2023-04-15T01:57:45;100137.94;;;7.44;100.00
68594;BME280;55563;52.416;13.548;2023-04-15T01:59:47;100126.69;;;7.44;100.00
68594;BME280;55563;52.416;13.548;2023-04-15T02:01:50;100132.97;;;7.43;100.00
68594;BME280;55563;52.416;13.548;2023-04-15T02:03:52;100137.16;;;7.44;100.00
68594;BME280;55563;52.416;13.548;2023-04-15T02:05:54;100135.59;;;7.43;100.00
68594;BME280;55563;52.416;13.548;2023-04-15T02:07:57;100132.94;;;7.38;100.00
68594;BME280;55563;52.416;13.548;2023-04-15T02:09:59;100135.28;;;7.39;100.00
68594;BME280;55563;52.416;13.548;2023-04-15T02:12:01;100137.59;;;7.36;100.00
68594;BME280;55563;52.416;13.548;2023-04-15T02:14:03;100128.22;;;7.40;100.00
68594;BME280;55563;52.416;13.548;2023-04-15T02:16:15;100135.28;;;7.39;100.00
68594;BME280;55563;52.416;13.548;2023-04-15T02:18:18;100131.38;;;7.42;100.00
68594;BME280;55563;52.416;13.548;2023-04-15T02:20:21;100125.63;;;7.40;100.00
68594;BME280;55563;52.416;13.548;2023-04-15T02:22:23;100138.22;;;7.43;100.00
68594;BME280;55563;52.416;13.548;2023-04-15T02:24:26;100127.72;;;7.38;100.00
68594;BME280;55563;52.416;13.548;2023-04-15T02:26:28;100138.69;;;7.40;100.00
68594;BME280;55563;52.416;13.548;2023-04-15T02:28:33;100138.97;;;7.43;100.00
68594;BME280;55563;52.416;13.548;2023-04-15T02:30:35;100128.25;;;7.45;100.00
68594;BME280;55563;52.416;13.548;2023-04-15T02:32:37;100132.97;;;7.43;100.00
68594;BME280;55563;52.416;13.548;2023-04-15T02:34:39;100131.91;;;7.44;100.00
68594;BME280;55563;52.416;13.548;2023-04-15T02:36:44;100131.69;;;7.45;100.00
68594;BME280;55563;52.416;13.548;2023-04-15T02:38:50;100134.28;;;7.45;100.00
68594;BME280;55563;52.416;13.548;2023-04-15T02:40:52;100129.06;;;7.45;100.00
68594;BME280;55563;52.416;13.548;2023-04-15T02:42:54;100136.91;;;7.45;100.00
68594;BME280;55563;52.416;13.548;2023-04-15T02:44:56;100126.72;;;7.49;100.00
68594;BME280;55563;52.416;13.548;2023-04-15T02:47:04;100142.41;;;7.49;100.00
68594;BME280;55563;52.416;13.548;2023-04-15T02:49:07;100138.78;;;7.50;100.00
68594;BME280;55563;52.416;13.548;2023-04-15T02:51:19;100140.13;;;7.53;100.00
68594;BME280;55563;52.416;13.548;2023-04-15T02:53:22;100141.16;;;7.52;100.00
68594;BME280;55563;52.416;13.548;2023-04-15T02:55:24;100141.38;;;7.50;100.00
68594;BME280;55563;52.416;13.548;2023-04-15T02:57:26;100135.91;;;7.52;100.00
68594;BME280;55563;52.416;13.548;2023-04-15T02:59:31;100135.91;;;7.52;100.00
68594;BME280;55563;52.416;13.548;2023-04-15T03:01:33;100133.81;;;7.54;100.00
68594;BME280;55563;52.416;13.548;2023-04-15T03:03:35;100139.59;;;7.56;100.00
68594;BME280;55563;52.416;13.548;2023-04-15T03:05:37;100142.22;;;7.56;100.00
68594;BME280;55563;52.416;13.548;2023-04-15T03:07:40;100141.19;;;7.57;100.00
68594;BME280;55563;52.416;13.548;2023-04-15T03:09:42;100136.75;;;7.57;100.00
68594;BME280;55563;52.416;13.548;2023-04-15T03:11:44;100138.28;;;7.58;100.00
68594;BME280;55563;52.416;13.548;2023-04-15T03:13:46;100151.94;;;7.60;100.00
68594;BME280;55563;52.416;13.548;2023-04-15T03:15:59;100147.22;;;7.57;100.00
68594;BME280;55563;52.416;13.548;2023-04-15T03:18:02;100151.38;;;7.58;100.00
68594;BME280;55563;52.416;13.548;2023-04-15T03:20:05;100144.63;;;7.62;100.00
68594;BME280;55563;52.416;13.548;2023-04-15T03:22:07;100149.06;;;7.62;100.00
68594;BME280;55563;52.416;13.548;2023-04-15T03:24:10;100153.25;;;7.63;100.00
68594;BME280;55563;52.416;13.548;2023-04-15T03:26:23;100154.31;;;7.62;100.00
68594;BME280;55563;52.416;13.548;2023-04-15T03:28:26;100146.97;;;7.64;100.00
68594;BME280;55563;52.416;13.548;2023-04-15T03:30:30;100149.91;;;7.67;100.00
68594;BME280;55563;52.416;13.548;2023-04-15T03:32:32;100149.09;;;7.67;100.00
68594;BME280;55563;52.416;13.548;2023-04-15T03:34:34;100152.25;;;7.69;100.00
68594;BME280;55563;52.416;13.548;2023-04-15T03:36:37;100142.56;;;7.69;100.00
68594;BME280;55563;52.416;13.548;2023-04-15T03:38:39;100144.16;;;7.70;100.00
68594;BME280;55563;52.416;13.548;2023-04-15T03:40:41;100135.78;;;7.73;100.00
68594;BME280;55563;52.416;13.548;2023-04-15T03:42:43;100140.00;;;7.74;100.00
68594;BME280;55563;52.416;13.548;2023-04-15T03:44:45;100136.34;;;7.75;100.00
68594;BME280;55563;52.416;13.548;2023-04-15T03:46:47;100148.41;;;7.76;100.00
68594;BME280;55563;52.416;13.548;2023-04-15T03:48:49;100149.94;;;7.77;100.00
68594;BME280;55563;52.416;13.548;2023-04-15T03:50:51;100147.59;;;7.76;100.00
68594;BME280;55563;52.416;13.548;2023-04-15T03:52:53;100149.66;;;7.74;100.00
68594;BME280;55563;52.416;13.548;2023-04-15T03:54:55;100160.91;;;7.74;100.00
68594;BME280;55563;52.416;13.548;2023-04-15T03:56:57;100150.22;;;7.76;100.00
68594;BME280;55563;52.416;13.548;2023-04-15T03:58:59;100155.72;;;7.79;100.00
68594;BME280;55563;52.416;13.548;2023-04-15T04:01:01;100154.16;;;7.78;100.00
68594;BME280;55563;52.416;13.548;2023-04-15T04:03:03;100155.44;;;7.76;100.00
68594;BME280;55563;52.416;13.548;2023-04-15T04:05:05;100163.03;;;7.77;100.00
68594;BME280;55563;52.416;13.548;2023-04-15T04:07:07;100152.56;;;7.77;100.00
68594;BME280;55563;52.416;13.548;2023-04-15T04:09:09;100152.84;;;7.76;100.00
68594;BME280;55563;52.416;13.548;2023-04-15T04:11:11;100159.66;;;7.77;100.00
68594;BME280;55563;52.416;13.548;2023-04-15T04:13:13;100159.88;;;7.75;100.00
68594;BME280;55563;52.416;13.548;2023-04-15T04:15:16;100162.00;;;7.78;100.00
68594;BME280;55563;52.416;13.548;2023-04-15T04:17:17;100155.97;;;7.78;100.00
68594;BME280;55563;52.416;13.548;2023-04-15T04:19:19;100160.41;;;7.77;100.00
68594;BME280;55563;52.416;13.548;2023-04-15T04:21:21;100157.31;;;7.80;100.00
68594;BME280;55563;52.416;13.548;2023-04-15T04:23:24;100161.50;;;7.81;100.00
68594;BME280;55563;52.416;13.548;2023-04-15T04:25:26;100153.91;;;7.80;100.00
68594;BME280;55563;52.416;13.548;2023-04-15T04:27:28;100163.56;;;7.79;100.00
68594;BME280;55563;52.416;13.548;2023-04-15T04:29:30;100157.31;;;7.80;100.00
68594;BME280;55563;52.416;13.548;2023-04-15T04:31:32;100157.84;;;7.82;100.00
68594;BME280;55563;52.416;13.548;2023-04-15T04:33:34;100158.63;;;7.83;100.00
68594;BME280;55563;52.416;13.548;2023-04-15T04:35:35;100159.66;;;7.82;100.00
68594;BME280;55563;52.416;13.548;2023-04-15T04:37:38;100161.25;;;7.83;100.00
68594;BME280;55563;52.416;13.548;2023-04-15T04:39:40;100158.38;;;7.84;100.00
68594;BME280;55563;52.416;13.548;2023-04-15T04:41:43;100163.88;;;7.88;100.00
68594;BME280;55563;52.416;13.548;2023-04-15T04:43:45;100163.66;;;7.89;100.00
68594;BME280;55563;52.416;13.548;2023-04-15T04:45:47;100161.81;;;7.90;100.00
68594;BME280;55563;52.416;13.548;2023-04-15T04:47:49;100162.84;;;7.89;100.00
68594;BME280;55563;52.416;13.548;2023-04-15T04:49:51;100163.41;;;7.91;100.00
68594;BME280;55563;52.416;13.548;2023-04-15T04:51:53;100157.09;;;7.92;100.00
68594;BME280;55563;52.416;13.548;2023-04-15T04:53:55;100169.41;;;7.92;100.00
68594;BME280;55563;52.416;13.548;2023-04-15T04:55:57;100173.13;;;7.96;100.00
68594;BME280;55563;52.416;13.548;2023-04-15T04:58:05;100179.38;;;7.95;100.00
68594;BME280;55563;52.416;13.548;2023-04-15T05:00:09;100178.34;;;7.96;100.00
68594;BME280;55563;52.416;13.548;2023-04-15T05:02:11;100182.28;;;7.98;100.00
68594;BME280;55563;52.416;13.548;2023-04-15T05:04:13;100181.72;;;7.96;100.00
68594;BME280;55563;52.416;13.548;2023-04-15T05:06:15;100189.88;;;8.00;100.00
68594;BME280;55563;52.416;13.548;2023-04-15T05:08:17;100185.69;;;7.99;100.00
68594;BME280;55563;52.416;13.548;2023-04-15T05:10:19;100187.31;;;8.05;100.00
68594;BME280;55563;52.416;13.548;2023-04-15T05:12:21;100189.38;;;8.03;100.00
68594;BME280;55563;52.416;13.548;2023-04-15T05:14:23;100193.06;;;8.07;100.00
68594;BME280;55563;52.416;13.548;2023-04-15T05:16:25;100193.09;;;8.12;100.00
68594;BME280;55563;52.416;13.548;2023-04-15T05:18:27;100195.47;;;8.13;100.00
68594;BME280;55563;52.416;13.548;2023-04-15T05:20:29;100193.88;;;8.12;100.00
68594;BME280;55563;52.416;13.548;2023-04-15T05:22:31;100198.34;;;8.17;100.00
68594;BME280;55563;52.416;13.548;2023-04-15T05:24:34;100198.63;;;8.20;100.00
68594;BME280;55563;52.416;13.548;2023-04-15T05:26:36;100207.31;;;8.26;100.00
68594;BME280;55563;52.416;13.548;2023-04-15T05:28:38;100194.78;;;8.28;100.00
68594;BME280;55563;52.416;13.548;2023-04-15T05:30:40;100200.00;;;8.28;100.00
68594;BME280;55563;52.416;13.548;2023-04-15T05:32:42;100197.47;;;8.38;100.00
68594;BME280;55563;52.416;13.548;2023-04-15T05:34:44;100194.34;;;8.41;100.00
68594;BME280;55563;52.416;13.548;2023-04-15T05:36:46;100201.44;;;8.46;100.00
68594;BME280;55563;52.416;13.548;2023-04-15T05:38:48;100205.38;;;8.48;100.00
68594;BME280;55563;52.416;13.548;2023-04-15T05:40:50;100195.69;;;8.49;100.00
68594;BME280;55563;52.416;13.548;2023-04-15T05:42:52;100183.94;;;8.56;100.00
68594;BME280;55563;52.416;13.548;2023-04-15T05:44:54;100184.75;;;8.62;100.00
68594;BME280;55563;52.416;13.548;2023-04-15T05:46:57;100182.38;;;8.60;100.00
68594;BME280;55563;52.416;13.548;2023-04-15T05:48:58;100175.56;;;8.64;100.00
68594;BME280;55563;52.416;13.548;2023-04-15T05:51:00;100177.16;;;8.65;100.00
68594;BME280;55563;52.416;13.548;2023-04-15T05:53:02;100171.66;;;8.67;100.00
68594;BME280;55563;52.416;13.548;2023-04-15T05:55:04;100165.91;;;8.70;100.00
68594;BME280;55563;52.416;13.548;2023-04-15T05:57:06;100164.06;;;8.70;100.00
68594;BME280;55563;52.416;13.548;2023-04-15T05:59:08;100166.69;;;8.70;100.00
68594;BME280;55563;52.416;13.548;2023-04-15T06:01:10;100167.50;;;8.76;100.00
68594;BME280;55563;52.416;13.548;2023-04-15T06:03:13;100168.03;;;8.78;100.00
68594;BME280;55563;52.416;13.548;2023-04-15T06:05:15;100169.59;;;8.79;100.00
68594;BME280;55563;52.416;13.548;2023-04-15T06:07:16;100165.13;;;8.74;100.00
68594;BME280;55563;52.416;13.548;2023-04-15T06:09:18;100162.53;;;8.80;100.00
68594;BME280;55563;52.416;13.548;2023-04-15T06:11:20;100165.69;;;8.82;100.00
68594;BME280;55563;52.416;13.548;2023-04-15T06:13:22;100167.00;;;8.84;100.00
68594;BME280;55563;52.416;13.548;2023-04-15T06:15:24;100171.75;;;8.87;100.00
68594;BME280;55563;52.416;13.548;2023-04-15T06:17:26;100163.88;;;8.92;100.00
68594;BME280;55563;52.416;13.548;2023-04-15T06:19:28;100165.44;;;8.88;100.00
68594;BME280;55563;52.416;13.548;2023-04-15T06:21:31;100161.53;;;8.96;100.00
68594;BME280;55563;52.416;13.548;2023-04-15T06:23:34;100164.69;;;9.08;100.00
68594;BME280;55563;52.416;13.548;2023-04-15T06:25:37;100178.84;;;9.07;100.00
68594;BME280;55563;52.416;13.548;2023-04-15T06:27:39;100176.50;;;9.10;100.00
68594;BME280;55563;52.416;13.548;2023-04-15T06:29:41;100175.22;;;9.23;100.00
68594;BME280;55563;52.416;13.548;2023-04-15T06:31:43;100186.50;;;9.34;100.00
68594;BME280;55563;52.416;13.548;2023-04-15T06:33:45;100188.63;;;9.47;100.00
68594;BME280;55563;52.416;13.548;2023-04-15T06:35:47;100185.44;;;9.45;100.00
68594;BME280;55563;52.416;13.548;2023-04-15T06:37:50;100189.41;;;9.52;100.00
68594;BME280;55563;52.416;13.548;2023-04-15T06:39:52;100185.72;;;9.43;100.00
68594;BME280;55563;52.416;13.548;2023-04-15T06:41:54;100189.16;;;9.44;100.00
68594;BME280;55563;52.416;13.548;2023-04-15T06:43:57;100190.97;;;9.43;100.00
68594;BME280;55563;52.416;13.548;2023-04-15T06:45:59;100195.19;;;9.44;100.00
68594;BME280;55563;52.416;13.548;2023-04-15T06:48:01;100189.16;;;9.49;100.00
68594;BME280;55563;52.416;13.548;2023-04-15T06:50:03;100197.28;;;9.52;100.00
68594;BME280;55563;52.416;13.548;2023-04-15T06:52:05;100196.72;;;9.45;100.00
68594;BME280;55563;52.416;13.548;2023-04-15T06:54:07;100196.75;;;9.50;100.00
68594;BME280;55563;52.416;13.548;2023-04-15T06:56:09;100204.59;;;9.40;100.00
68594;BME280;55563;52.416;13.548;2023-04-15T06:58:11;100198.84;;;9.38;100.00
68594;BME280;55563;52.416;13.548;2023-04-15T07:00:13;100203.03;;;9.34;100.00
68594;BME280;55563;52.416;13.548;2023-04-15T07:02:15;100199.34;;;9.45;100.00
68594;BME280;55563;52.416;13.548;2023-04-15T07:04:17;100204.59;;;9.45;100.00
68594;BME280;55563;52.416;13.548;2023-04-15T07:06:19;100202.78;;;9.46;100.00
68594;BME280;55563;52.416;13.548;2023-04-15T07:08:22;100206.72;;;9.43;100.00
68594;BME280;55563;52.416;13.548;2023-04-15T07:10:24;100221.66;;;9.48;100.00
68594;BME280;55563;52.416;13.548;2023-04-15T07:12:26;100221.66;;;9.38;100.00
68594;BME280;55563;52.416;13.548;2023-04-15T07:14:28;100226.88;;;9.28;100.00
68594;BME280;55563;52.416;13.548;2023-04-15T07:16:30;100232.91;;;9.28;100.00
68594;BME280;55563;52.416;13.548;2023-04-15T07:18:32;100229.25;;;9.29;100.00
68594;BME280;55563;52.416;13.548;2023-04-15T07:20:34;100221.09;;;9.31;100.00
68594;BME280;55563;52.416;13.548;2023-04-15T07:22:36;100217.19;;;9.28;100.00
68594;BME280;55563;52.416;13.548;2023-04-15T07:24:38;100232.38;;;9.26;100.00
68594;BME280;55563;52.416;13.548;2023-04-15T07:26:40;100222.97;;;9.30;100.00
68594;BME280;55563;52.416;13.548;2023-04-15T07:28:42;100226.09;;;9.27;100.00
68594;BME280;55563;52.416;13.548;2023-04-15T07:30:44;100231.56;;;9.10;100.00
68594;BME280;55563;52.416;13.548;2023-04-15T07:32:46;100237.34;;;9.17;100.00
68594;BME280;55563;52.416;13.548;2023-04-15T07:34:48;100240.75;;;9.18;100.00
68594;BME280;55563;52.416;13.548;2023-04-15T07:36:50;100237.03;;;9.04;100.00
68594;BME280;55563;52.416;13.548;2023-04-15T07:38:52;100242.84;;;9.11;100.00
68594;BME280;55563;52.416;13.548;2023-04-15T07:40:54;100244.91;;;9.04;100.00
68594;BME280;55563;52.416;13.548;2023-04-15T07:42:57;100241.22;;;9.00;100.00
68594;BME280;55563;52.416;13.548;2023-04-15T07:44:59;100242.81;;;9.06;100.00
68594;BME280;55563;52.416;13.548;2023-04-15T07:47:01;100238.88;;;9.08;100.00
68594;BME280;55563;52.416;13.548;2023-04-15T07:49:04;100245.72;;;9.09;100.00
68594;BME280;55563;52.416;13.548;2023-04-15T07:51:06;100235.22;;;9.09;100.00
68594;BME280;55563;52.416;13.548;2023-04-15T07:53:08;100242.28;;;9.04;100.00
68594;BME280;55563;52.416;13.548;2023-04-15T07:55:10;100243.06;;;8.99;100.00
68594;BME280;55563;52.416;13.548;2023-04-15T07:57:12;100244.66;;;9.05;100.00
68594;BME280;55563;52.416;13.548;2023-04-15T07:59:15;100248.59;;;9.08;100.00
68594;BME280;55563;52.416;13.548;2023-04-15T08:01:18;100252.53;;;9.10;100.00
68594;BME280;55563;52.416;13.548;2023-04-15T08:03:21;100250.91;;;8.94;100.00
68594;BME280;55563;52.416;13.548;2023-04-15T08:05:23;100258.81;;;9.04;100.00
68594;BME280;55563;52.416;13.548;2023-04-15T08:07:25;100254.09;;;9.06;100.00
68594;BME280;55563;52.416;13.548;2023-04-15T08:09:27;100247.78;;;9.02;100.00
68594;BME280;55563;52.416;13.548;2023-04-15T08:11:29;100261.44;;;9.09;100.00
68594;BME280;55563;52.416;13.548;2023-04-15T08:13:32;100260.91;;;9.07;100.00
68594;BME280;55563;52.416;13.548;2023-04-15T08:15:34;100264.84;;;9.10;100.00
68594;BME280;55563;52.416;13.548;2023-04-15T08:17:36;100260.16;;;9.17;100.00
68594;BME280;55563;52.416;13.548;2023-04-15T08:19:39;100261.19;;;9.16;100.00
68594;BME280;55563;52.416;13.548;2023-04-15T08:21:41;100266.94;;;9.08;100.00
68594;BME280;55563;52.416;13.548;2023-04-15T08:23:44;100257.50;;;9.12;100.00
68594;BME280;55563;52.416;13.548;2023-04-15T08:25:47;100271.66;;;9.06;100.00
68594;BME280;55563;52.416;13.548;2023-04-15T08:27:49;100265.09;;;9.03;100.00
68594;BME280;55563;52.416;13.548;2023-04-15T08:29:51;100269.81;;;9.11;100.00
68594;BME280;55563;52.416;13.548;2023-04-15T08:31:53;100273.22;;;9.12;100.00
68594;BME280;55563;52.416;13.548;2023-04-15T08:33:56;100275.06;;;9.11;100.00
68594;BME280;55563;52.416;13.548;2023-04-15T08:35:58;100277.19;;;9.14;100.00
68594;BME280;55563;52.416;13.548;2023-04-15T08:38:00;100278.22;;;9.08;100.00
68594;BME280;55563;52.416;13.548;2023-04-15T08:40:02;100266.66;;;8.99;100.00
68594;BME280;55563;52.416;13.548;2023-04-15T08:42:10;100271.13;;;9.09;100.00
68594;BME280;55563;52.416;13.548;2023-04-15T08:44:13;100272.97;;;9.08;100.00
68594;BME280;55563;52.416;13.548;2023-04-15T08:46:15;100278.78;;;9.15;100.00
68594;BME280;55563;52.416;13.548;2023-04-15T08:48:18;100283.22;;;9.15;100.00
68594;BME280;55563;52.416;13.548;2023-04-15T08:50:21;100281.09;;;9.12;100.00
68594;BME280;55563;52.416;13.548;2023-04-15T08:52:25;100281.41;;;9.15;100.00
68594;BME280;55563;52.416;13.548;2023-04-15T08:54:27;100273.28;;;9.22;100.00
68594;BME280;55563;52.416;13.548;2023-04-15T08:56:30;100281.16;;;9.32;100.00
68594;BME280;55563;52.416;13.548;2023-04-15T08:58:34;100281.16;;;9.27;100.00
68594;BME280;55563;52.416;13.548;2023-04-15T09:00:37;100289.56;;;9.24;100.00
68594;BME280;55563;52.416;13.548;2023-04-15T09:02:40;100287.72;;;9.25;100.00
68594;BME280;55563;52.416;13.548;2023-04-15T09:04:42;100287.47;;;9.36;100.00
68594;BME280;55563;52.416;13.548;2023-04-15T09:06:44;100289.03;;;9.32;100.00
68594;BME280;55563;52.416;13.548;2023-04-15T09:08:46;100294.50;;;9.26;100.00
68594;BME280;55563;52.416;13.548;2023-04-15T09:10:48;100288.53;;;9.30;100.00
68594;BME280;55563;52.416;13.548;2023-04-15T09:12:50;100282.50;;;9.30;100.00
68594;BME280;55563;52.416;13.548;2023-04-15T09:14:52;100289.06;;;9.37;100.00
68594;BME280;55563;52.416;13.548;2023-04-15T09:16:56;100290.38;;;9.40;100.00
68594;BME280;55563;52.416;13.548;2023-04-15T09:18:58;100285.91;;;9.45;100.00
68594;BME280;55563;52.416;13.548;2023-04-15T09:21:13;100300.63;;;9.51;100.00
68594;BME280;55563;52.416;13.548;2023-04-15T09:23:15;100293.25;;;9.38;100.00
68594;BME280;55563;52.416;13.548;2023-04-15T09:27:35;100296.38;;;9.35;100.00
68594;BME280;55563;52.416;13.548;2023-04-15T09:29:40;100312.13;;;9.35;100.00
68594;BME280;55563;52.416;13.548;2023-04-15T09:31:43;100312.63;;;9.32;100.00
68594;BME280;55563;52.416;13.548;2023-04-15T09:33:54;100311.59;;;9.33;100.00
68594;BME280;55563;52.416;13.548;2023-04-15T09:36:00;100306.13;;;9.40;100.00
68594;BME280;55563;52.416;13.548;2023-04-15T09:38:04;100324.22;;;9.41;100.00
68594;BME280;55563;52.416;13.548;2023-04-15T09:40:08;100317.09;;;9.32;100.00
68594;BME280;55563;52.416;13.548;2023-04-15T09:42:10;100318.94;;;9.31;100.00
68594;BME280;55563;52.416;13.548;2023-04-15T09:44:27;100326.59;;;9.43;100.00
68594;BME280;55563;52.416;13.548;2023-04-15T09:46:44;100337.81;;;9.28;100.00
68594;BME280;55563;52.416;13.548;2023-04-15T09:49:06;100327.63;;;9.42;100.00
68594;BME280;55563;52.416;13.548;2023-04-15T09:51:08;100327.34;;;9.33;100.00
68594;BME280;55563;52.416;13.548;2023-04-15T09:53:14;100338.09;;;9.37;100.00
68594;BME280;55563;52.416;13.548;2023-04-15T09:55:17;100346.78;;;9.42;100.00
68594;BME280;55563;52.416;13.548;2023-04-15T09:57:19;100333.34;;;9.24;100.00
68594;BME280;55563;52.416;13.548;2023-04-15T09:59:22;100342.31;;;9.38;100.00
68594;BME280;55563;52.416;13.548;2023-04-15T10:01:25;100342.09;;;9.49;100.00
68594;BME280;55563;52.416;13.548;2023-04-15T10:03:28;100348.66;;;9.52;100.00
68594;BME280;55563;52.416;13.548;2023-04-15T10:05:31;100342.34;;;9.48;100.00
68594;BME280;55563;52.416;13.548;2023-04-15T10:07:34;100349.16;;;9.49;100.00
68594;BME280;55563;52.416;13.548;2023-04-15T10:09:37;100343.16;;;9.58;100.00
68594;BME280;55563;52.416;13.548;2023-04-15T10:11:40;100349.69;;;9.56;100.00
68594;BME280;55563;52.416;13.548;2023-04-15T10:13:44;100352.56;;;9.54;100.00
68594;BME280;55563;52.416;13.548;2023-04-15T10:15:51;100346.03;;;9.57;100.00
68594;BME280;55563;52.416;13.548;2023-04-15T10:17:55;100346.56;;;9.54;100.00
68594;BME280;55563;52.416;13.548;2023-04-15T10:20:00;100351.31;;;9.62;100.00
68594;BME280;55563;52.416;13.548;2023-04-15T10:22:03;100361.25;;;9.55;100.00
68594;BME280;55563;52.416;13.548;2023-04-15T10:24:07;100354.19;;;9.60;100.00
68594;BME280;55563;52.416;13.548;2023-04-15T10:26:10;100357.03;;;9.49;100.00
68594;BME280;55563;52.416;13.548;2023-04-15T10:28:15;100360.47;;;9.49;100.00
68594;BME280;55563;52.416;13.548;2023-04-15T10:30:17;100355.22;;;9.49;100.00
68594;BME280;55563;52.416;13.548;2023-04-15T10:32:20;100363.63;;;9.56;100.00
68594;BME280;55563;52.416;13.548;2023-04-15T10:34:23;100358.34;;;9.51;100.00
68594;BME280;55563;52.416;13.548;2023-04-15T10:36:26;100355.97;;;9.50;100.00